Time;durP1;ratioP1;P1;durP2;ratioP2;P2;SDS_P1;SDS_P2;PMS_P1;PMS_P2;Temp;Humidity;BMP_temperature;BMP_pressure;BME280_temperature;BME280_humidity;BME280_pressure;Samples;Min_cycle;Max_cycle;Signal;HPM_P1;HPM_P2
2021/08/26 00:00:57;;;;;;;17.30;10.40;;;;;;;18.33;76.35;96144.75;5113682;28;20027;-60
2021/08/26 00:06:14;;;;;;;13.57;10.68;;;;;;;18.35;76.39;96145.47;5114089;28;20026;-59
2021/08/26 00:08:40;;;;;;;13.40;11.10;;;;;;;18.33;76.36;96153.50;5113796;28;20475;-60
2021/08/26 00:11:06;;;;;;;16.73;11.40;;;;;;;18.28;76.91;96160.97;5113742;28;20062;-60
2021/08/26 00:13:31;;;;;;;13.32;10.95;;;;;;;18.33;76.90;96169.41;5113624;28;20095;-60
2021/08/26 00:15:59;;;;;;;16.70;10.55;;;;;;;18.39;76.53;96176.88;5113559;28;20059;-59
2021/08/26 00:18:24;;;;;;;12.20;10.63;;;;;;;18.35;75.98;96175.44;5113228;28;20102;-60
2021/08/26 00:20:53;;;;;;;17.38;11.07;;;;;;;18.33;76.15;96180.00;5113538;28;20036;-60
2021/08/26 00:23:20;;;;;;;13.50;10.13;;;;;;;18.31;76.04;96179.28;5113503;28;20110;-60
2021/08/26 00:25:46;;;;;;;15.15;12.13;;;;;;;18.27;76.09;96180.47;5113503;28;20043;-60
2021/08/26 00:28:11;;;;;;;13.15;10.10;;;;;;;18.31;77.39;96201.28;5113734;28;20019;-60
2021/08/26 00:30:37;;;;;;;12.40;10.68;;;;;;;18.40;77.12;96202.41;5113376;28;20023;-60
2021/08/26 00:33:03;;;;;;;17.75;11.32;;;;;;;18.48;77.12;96204.47;5113564;28;20051;-60
2021/08/26 00:35:28;;;;;;;15.43;11.80;;;;;;;18.52;76.85;96198.00;5113458;28;20107;-60
2021/08/26 00:37:54;;;;;;;14.40;10.98;;;;;;;18.58;76.33;96193.19;5113515;28;20020;-60
2021/08/26 00:40:19;;;;;;;12.45;10.38;;;;;;;18.62;76.10;96200.78;5113292;28;20132;-60
2021/08/26 00:42:45;;;;;;;14.23;10.75;;;;;;;18.65;76.22;96195.25;5113447;28;20080;-60
2021/08/26 00:45:11;;;;;;;13.82;10.77;;;;;;;18.67;75.43;96195.97;5113324;28;20024;-60
2021/08/26 00:47:38;;;;;;;14.82;11.13;;;;;;;18.69;75.45;96199.34;5113319;28;20012;-60
2021/08/26 00:50:04;;;;;;;11.45;10.25;;;;;;;18.68;75.66;96202.97;5113241;28;20094;-59
2021/08/26 00:52:30;;;;;;;12.10;10.48;;;;;;;18.71;75.83;96201.03;5113317;28;20070;-60
2021/08/26 00:54:56;;;;;;;17.88;11.52;;;;;;;18.68;75.62;96186.22;5113180;28;20493;-61
2021/08/26 00:57:23;;;;;;;12.30;9.75;;;;;;;18.64;74.98;96185.63;5113132;28;20016;-60
2021/08/26 00:59:49;;;;;;;12.75;9.95;;;;;;;18.61;75.07;96177.06;5113143;28;20044;-60
2021/08/26 01:02:38;;;;;;;12.40;10.70;;;;;;;18.62;75.15;96176.09;5113299;28;20111;-60
2021/08/26 01:05:24;;;;;;;11.85;10.48;;;;;;;18.62;75.10;96173.44;5113330;28;20035;-59
2021/08/26 01:07:58;;;;;;;13.85;10.65;;;;;;;18.60;74.54;96186.78;5113332;28;20035;-60
2021/08/26 01:10:24;;;;;;;12.20;10.63;;;;;;;18.64;75.25;96180.34;5113122;28;20020;-60
2021/08/26 01:12:55;;;;;;;14.48;10.65;;;;;;;18.65;74.67;96173.22;5113144;28;20068;-59
2021/08/26 01:15:21;;;;;;;;;;;;;;;18.66;74.76;96173.09;5113562;28;20032;-60
2021/08/26 01:17:46;;;;;;;13.77;9.63;;;;;;;18.59;74.40;96171.03;5113080;28;20025;-59
2021/08/26 01:20:12;;;;;;;12.77;10.15;;;;;;;18.52;74.44;96175.97;5112895;28;20060;-60
2021/08/26 01:22:38;;;;;;;12.80;9.90;;;;;;;18.51;74.08;96169.81;5113071;28;20043;-60
2021/08/26 01:25:14;;;;;;;11.85;9.65;;;;;;;18.54;74.20;96166.06;5112772;28;20040;-60
2021/08/26 01:28:03;;;;;;;12.45;10.32;;;;;;;18.46;74.27;96169.34;5112949;28;20028;-60
2021/08/26 01:30:30;;;;;;;12.35;10.15;;;;;;;18.39;74.36;96162.81;5116325;28;20027;-60
2021/08/26 01:32:59;;;;;;;11.68;9.95;;;;;;;18.37;74.43;96168.22;5116656;28;20019;-60
2021/08/26 01:35:25;;;;;;;13.13;10.70;;;;;;;18.34;74.05;96159.66;5116662;28;20024;-60
2021/08/26 01:37:52;;;;;;;13.00;10.18;;;;;;;18.29;73.89;96150.28;5116716;28;20035;-60
2021/08/26 01:40:37;;;;;;;10.52;9.25;;;;;;;18.33;73.61;96136.81;5116494;28;20053;-60
2021/08/26 01:43:09;;;;;;;12.07;9.75;;;;;;;18.28;73.11;96143.31;5116462;28;20422;-60
2021/08/26 01:45:34;;;;;;;13.05;9.00;;;;;;;18.24;73.34;96143.66;5116439;28;20059;-60
2021/08/26 01:48:00;;;;;;;12.23;8.98;;;;;;;18.24;73.00;96147.13;5116359;28;20207;-59
2021/08/26 01:50:25;;;;;;;10.52;9.35;;;;;;;18.18;72.59;96144.94;5116274;28;20076;-60
2021/08/26 01:52:51;;;;;;;12.07;9.40;;;;;;;18.09;72.42;96135.84;5116318;28;20053;-60
2021/08/26 01:55:16;;;;;;;11.57;10.00;;;;;;;18.01;72.42;96139.09;5116143;28;20027;-60
2021/08/26 01:57:42;;;;;;;13.25;9.63;;;;;;;17.98;72.73;96135.81;5116175;28;20433;-60
2021/08/26 02:00:08;;;;;;;11.70;9.27;;;;;;;17.97;73.10;96131.50;5116038;28;20439;-60
2021/08/26 02:02:34;;;;;;;11.98;9.82;;;;;;;17.91;73.22;96130.97;5116042;28;20469;-60
2021/08/26 02:05:00;;;;;;;13.60;9.93;;;;;;;17.92;73.02;96132.69;5116046;28;20031;-59
2021/08/26 02:07:25;;;;;;;16.17;8.52;;;;;;;17.96;72.45;96133.28;5116096;28;20027;-60
2021/08/26 02:09:51;;;;;;;11.07;9.07;;;;;;;17.91;72.38;96130.97;5115911;28;20047;-60
2021/08/26 02:12:17;;;;;;;10.95;9.10;;;;;;;17.87;72.51;96129.53;5114787;28;20019;-60
2021/08/26 02:14:42;;;;;;;12.48;9.50;;;;;;;17.83;72.74;96133.38;5116056;28;20018;-60
2021/08/26 02:17:08;;;;;;;12.98;9.48;;;;;;;17.74;72.70;96126.97;5115866;28;20027;-60
2021/08/26 02:19:34;;;;;;;12.65;8.90;;;;;;;17.66;72.54;96124.00;5115627;28;20039;-59
2021/08/26 02:22:00;;;;;;;14.90;10.10;;;;;;;17.55;72.73;96116.88;5115638;28;20047;-59
2021/08/26 02:24:25;;;;;;;13.95;10.30;;;;;;;17.57;72.81;96130.81;5115581;28;20489;-61
2021/08/26 02:26:51;;;;;;;13.80;10.13;;;;;;;17.56;72.35;96126.50;5115698;28;20028;-60
2021/08/26 02:29:17;;;;;;;13.30;9.77;;;;;;;17.50;72.60;96122.50;5115596;28;20106;-60
2021/08/26 02:31:43;;;;;;;12.23;9.30;;;;;;;17.39;72.69;96133.84;5115442;27;20016;-60
2021/08/26 02:34:08;;;;;;;15.65;8.50;;;;;;;17.37;72.92;96130.47;5115428;28;20382;-60
2021/08/26 02:36:34;;;;;;;14.25;10.82;;;;;;;17.30;72.84;96132.72;5115399;28;20060;-59
2021/08/26 02:38:59;;;;;;;13.63;9.43;;;;;;;17.26;73.32;96128.63;5115350;28;20473;-59
2021/08/26 02:41:25;;;;;;;13.40;9.13;;;;;;;17.27;73.10;96130.28;5115185;28;20538;-59
2021/08/26 02:43:51;;;;;;;10.40;8.63;;;;;;;17.24;73.23;96127.88;5115176;28;20471;-60
2021/08/26 02:46:17;;;;;;;13.65;9.27;;;;;;;17.24;72.93;96127.88;5115258;28;20016;-60
2021/08/26 02:48:42;;;;;;;15.13;9.63;;;;;;;17.29;73.40;96135.47;5115179;27;20102;-59
2021/08/26 02:51:08;;;;;;;12.93;9.57;;;;;;;17.25;73.91;96129.56;5115243;28;20153;-60
2021/08/26 02:53:33;;;;;;;14.50;9.48;;;;;;;17.28;73.88;96120.56;5115036;28;20016;-60
2021/08/26 02:55:59;;;;;;;11.43;9.30;;;;;;;17.28;73.39;96118.75;5114959;28;20381;-60
2021/08/26 02:58:25;;;;;;;10.50;9.05;;;;;;;17.24;73.30;96117.28;5115046;27;20027;-59
2021/08/26 03:00:51;;;;;;;13.82;9.45;;;;;;;17.25;72.92;96121.63;5114714;28;20035;-59
2021/08/26 03:03:16;;;;;;;12.27;9.40;;;;;;;17.30;72.91;96126.56;5114852;28;20385;-60
2021/08/26 03:05:42;;;;;;;14.32;9.60;;;;;;;17.36;73.30;96123.50;5114787;28;20392;-60
2021/08/26 03:08:07;;;;;;;18.55;9.30;;;;;;;17.35;73.05;96118.31;5114670;28;20049;-60
2021/08/26 03:10:33;;;;;;;11.13;8.75;;;;;;;17.28;73.07;96118.75;5114703;28;20462;-59
2021/08/26 03:12:59;;;;;;;18.08;9.70;;;;;;;17.25;73.69;96118.16;5114724;28;20024;-60
2021/08/26 03:15:25;;;;;;;16.33;10.25;;;;;;;17.21;73.81;96112.22;5114644;27;20043;-59
2021/08/26 03:17:50;;;;;;;15.35;9.88;;;;;;;17.23;74.03;96123.56;5114590;28;20051;-60
2021/08/26 03:20:17;;;;;;;11.13;9.52;;;;;;;17.23;73.68;96123.56;5114392;28;20035;-59
2021/08/26 03:22:42;;;;;;;17.45;9.77;;;;;;;17.26;73.62;96131.25;5114454;28;20469;-59
2021/08/26 03:25:08;;;;;;;13.02;9.07;;;;;;;17.25;73.31;96128.72;5114097;28;20044;-59
2021/08/26 03:27:34;;;;;;;12.45;9.93;;;;;;;17.21;73.26;96132.50;5114434;28;20034;-61
2021/08/26 03:29:59;;;;;;;12.05;9.73;;;;;;;17.16;72.89;96132.88;5114437;28;20461;-60
2021/08/26 03:32:25;;;;;;;14.18;10.70;;;;;;;17.20;74.10;96139.63;5114333;28;20035;-60
2021/08/26 03:34:51;;;;;;;17.70;9.70;;;;;;;17.20;74.18;96136.13;5114298;28;20031;-59
2021/08/26 03:37:16;;;;;;;9.75;8.35;;;;;;;17.23;74.41;96128.84;5114082;28;20496;-60
2021/08/26 03:39:42;;;;;;;16.50;9.75;;;;;;;17.20;74.23;96123.75;5114082;28;20023;-60
2021/08/26 03:42:08;;;;;;;13.93;9.07;;;;;;;17.18;73.87;96128.31;5113981;28;20027;-60
2021/08/26 03:44:33;;;;;;;13.50;10.55;;;;;;;17.22;73.80;96128.94;5114185;28;20020;-60
2021/08/26 03:46:59;;;;;;;11.50;9.65;;;;;;;17.26;73.95;96130.41;5114050;28;20015;-59
2021/08/26 03:49:24;;;;;;;10.65;9.15;;;;;;;17.23;73.47;96128.84;5113859;28;20035;-59
2021/08/26 03:51:50;;;;;;;12.98;9.98;;;;;;;17.23;72.87;96131.47;5113310;28;20034;-59
2021/08/26 03:54:15;;;;;;;13.50;10.23;;;;;;;17.30;73.49;96132.72;5113983;28;20056;-60
2021/08/26 03:56:41;;;;;;;14.23;9.68;;;;;;;17.27;73.25;96127.66;5113905;28;20043;-59
2021/08/26 03:59:07;;;;;;;12.60;9.70;;;;;;;17.24;73.12;96137.59;5113898;28;20023;-59
2021/08/26 04:01:33;;;;;;;16.23;10.20;;;;;;;17.22;72.73;96139.50;5113858;28;20035;-60
2021/08/26 04:03:58;;;;;;;11.18;9.27;;;;;;;17.30;74.13;96139.78;5114157;28;20027;-59
2021/08/26 04:06:24;;;;;;;15.40;9.93;;;;;;;17.30;73.33;96140.66;5113658;28;20461;-59
2021/08/26 04:08:49;;;;;;;14.85;9.57;;;;;;;17.25;72.40;96141.94;5113795;28;20102;-60
2021/08/26 04:11:15;;;;;;;13.95;9.52;;;;;;;17.31;73.71;96144.16;5113696;28;20496;-60
2021/08/26 04:13:41;;;;;;;12.15;9.52;;;;;;;17.38;72.54;96139.25;5113608;28;20106;-60
2021/08/26 04:16:07;;;;;;;10.38;8.23;;;;;;;17.38;72.25;96144.53;5113614;28;20046;-60
2021/08/26 04:18:32;;;;;;;15.73;9.98;;;;;;;17.47;72.42;96143.03;5113560;28;20055;-60
2021/08/26 04:20:58;;;;;;;13.13;9.20;;;;;;;17.58;72.26;96147.53;5113506;28;20020;-60
2021/08/26 04:23:24;;;;;;;11.90;8.80;;;;;;;17.67;71.75;96144.22;5113269;28;20062;-60
2021/08/26 04:25:49;;;;;;;12.52;9.85;;;;;;;17.77;71.64;96142.59;5113566;28;20043;-60
2021/08/26 04:28:15;;;;;;;18.10;9.50;;;;;;;18.02;71.39;96148.72;5113486;28;20460;-60
2021/08/26 04:30:40;;;;;;;12.10;9.18;;;;;;;18.33;71.33;96147.41;5113671;28;20027;-60
2021/08/26 04:33:06;;;;;;;12.10;9.27;;;;;;;18.70;70.30;96152.53;5113520;28;20020;-60
2021/08/26 04:35:32;;;;;;;12.40;8.50;;;;;;;19.13;69.48;96151.00;5113450;28;20126;-60
2021/08/26 04:37:58;;;;;;;9.57;7.80;;;;;;;19.56;67.36;96159.13;5113348;28;20069;-60
2021/08/26 04:40:23;;;;;;;9.93;7.47;;;;;;;20.01;66.28;96158.19;5113277;28;20028;-60
2021/08/26 04:42:49;;;;;;;9.55;7.80;;;;;;;20.42;65.23;96158.34;5113437;28;20554;-61
2021/08/26 04:45:15;;;;;;;13.68;7.57;;;;;;;20.80;64.27;96158.72;5113378;28;20461;-60
2021/08/26 04:47:41;;;;;;;9.90;7.53;;;;;;;21.19;63.68;96167.88;5113426;28;20028;-60
2021/08/26 04:50:07;;;;;;;14.55;6.95;;;;;;;21.62;62.08;96149.94;5113282;28;20485;-60
2021/08/26 04:52:34;;;;;;;8.45;7.25;;;;;;;21.98;60.88;96149.44;5113157;28;20393;-60
2021/08/26 04:54:59;;;;;;;9.75;6.90;;;;;;;22.36;59.92;96149.56;5113303;28;20015;-60
2021/08/26 04:57:25;;;;;;;10.43;7.35;;;;;;;22.73;58.46;96148.00;5113292;28;20118;-60
2021/08/26 04:59:50;;;;;;;8.45;6.47;;;;;;;23.05;57.74;96151.25;5113093;28;20024;-60
2021/08/26 05:02:16;;;;;;;7.85;6.72;;;;;;;23.31;57.67;96142.56;5113085;28;20031;-60
2021/08/26 05:04:41;;;;;;;9.23;6.78;;;;;;;23.65;56.75;96147.31;5115482;28;20070;-60
2021/08/26 05:07:07;;;;;;;12.10;7.10;;;;;;;24.00;56.39;96142.19;5117085;28;20111;-60
2021/08/26 05:09:33;;;;;;;7.97;6.53;;;;;;;24.36;55.91;96144.84;5117102;28;20030;-60
2021/08/26 05:12:00;;;;;;;8.23;5.50;;;;;;;24.80;55.01;96140.47;5117109;28;20024;-61
2021/08/26 05:14:26;;;;;;;10.70;7.05;;;;;;;25.17;52.04;96137.69;5116975;28;20028;-60
2021/08/26 05:16:52;;;;;;;8.50;6.32;;;;;;;25.52;52.65;96140.31;5117057;27;20121;-60
2021/08/26 05:19:18;;;;;;;8.07;6.20;;;;;;;25.86;52.55;96136.75;5116738;28;20098;-60
2021/08/26 05:21:43;;;;;;;7.03;6.05;;;;;;;26.16;51.08;96121.06;5117011;28;20028;-61
2021/08/26 05:24:09;;;;;;;6.95;5.80;;;;;;;26.44;50.56;96125.25;5116658;28;20046;-60
2021/08/26 05:26:35;;;;;;;11.27;6.50;;;;;;;26.61;48.91;96120.72;5116717;28;20393;-61
2021/08/26 05:29:00;;;;;;;8.57;6.20;;;;;;;26.74;48.79;96121.03;5116720;28;20382;-61
2021/08/26 05:31:26;;;;;;;9.60;6.47;;;;;;;26.84;47.59;96119.97;5116723;28;20016;-61
2021/08/26 05:33:51;;;;;;;6.90;6.20;;;;;;;27.09;47.67;96119.97;5116724;28;20015;-61
2021/08/26 05:36:17;;;;;;;8.63;6.82;;;;;;;27.46;47.40;96118.47;5116685;28;20077;-61
2021/08/26 05:38:42;;;;;;;9.95;7.05;;;;;;;27.81;47.05;96117.28;5116551;28;20481;-61
2021/08/26 05:41:08;;;;;;;7.18;6.20;;;;;;;28.09;44.77;96120.28;5116383;28;20032;-61
2021/08/26 05:43:34;;;;;;;8.25;6.18;;;;;;;28.42;45.45;96119.22;5116379;28;20020;-60
2021/08/26 05:45:59;;;;;;;9.65;6.32;;;;;;;28.76;46.84;96125.09;5116393;28;20054;-60
2021/08/26 05:48:25;;;;;;;7.72;6.47;;;;;;;29.07;45.94;96126.81;5116346;28;20439;-61
2021/08/26 05:50:51;;;;;;;6.78;5.93;;;;;;;29.30;44.68;96131.25;5116256;27;20403;-61
2021/08/26 05:53:16;;;;;;;8.52;6.60;;;;;;;29.45;43.69;96133.09;5115228;28;20034;-61
2021/08/26 05:55:42;;;;;;;9.07;6.97;;;;;;;29.56;43.11;96129.13;5116165;28;20112;-60
2021/08/26 05:58:07;;;;;;;8.50;6.90;;;;;;;29.58;42.88;96118.97;5116254;28;20020;-61
2021/08/26 06:00:33;;;;;;;11.75;6.90;;;;;;;29.63;41.97;96127.34;5116057;28;20027;-61
2021/08/26 06:02:59;;;;;;;9.43;7.93;;;;;;;29.68;42.63;96124.06;5116048;28;20038;-60
2021/08/26 06:05:24;;;;;;;8.70;7.43;;;;;;;29.80;43.00;96121.72;5116189;28;20020;-61
2021/08/26 06:07:50;;;;;;;8.52;7.20;;;;;;;29.95;41.96;96127.06;5115961;28;20022;-61
2021/08/26 06:10:16;;;;;;;8.38;7.40;;;;;;;30.04;41.47;96133.16;5115498;28;20039;-61
2021/08/26 06:12:42;;;;;;;10.10;6.93;;;;;;;30.00;41.32;96146.16;5115779;28;20102;-61
2021/08/26 06:15:10;;;;;;;7.60;6.65;;;;;;;30.07;41.82;96141.69;5115176;28;20466;-61
2021/08/26 06:17:35;;;;;;;9.75;7.10;;;;;;;30.23;42.02;96139.78;5115788;28;20039;-61
2021/08/26 06:20:04;;;;;;;9.25;6.72;;;;;;;30.33;42.49;96143.00;5115750;28;20362;-61
2021/08/26 06:22:30;;;;;;;9.50;6.97;;;;;;;30.47;42.47;96152.06;5115634;28;20024;-61
2021/08/26 06:24:56;;;;;;;8.98;7.10;;;;;;;30.63;40.45;96147.38;5115504;28;20050;-60
2021/08/26 06:27:21;;;;;;;9.93;7.10;;;;;;;30.54;40.79;96141.31;5115515;28;20071;-61
2021/08/26 06:29:48;;;;;;;8.52;6.55;;;;;;;30.60;39.85;96139.69;5115623;28;20046;-61
2021/08/26 06:32:13;;;;;;;8.20;6.35;;;;;;;30.58;38.21;96139.06;5115463;28;20077;-61
2021/08/26 06:34:39;;;;;;;10.95;8.13;;;;;;;30.61;39.44;96125.19;5115419;28;20526;-61
2021/08/26 06:37:05;;;;;;;10.50;7.35;;;;;;;30.66;39.31;96125.41;5115560;28;20149;-61
2021/08/26 06:39:30;;;;;;;8.98;6.75;;;;;;;30.76;40.73;96136.72;5115269;28;20059;-60
2021/08/26 06:41:56;;;;;;;8.00;7.03;;;;;;;30.66;39.93;96135.41;5115274;28;20126;-61
2021/08/26 06:44:23;;;;;;;8.02;6.55;;;;;;;30.73;39.44;96133.56;5115340;28;20020;-61
2021/08/26 06:46:49;;;;;;;10.82;7.70;;;;;;;30.79;38.70;96132.78;5115300;28;20027;-60
2021/08/26 06:49:14;;;;;;;11.88;7.00;;;;;;;30.89;38.33;96124.38;5115201;28;20024;-61
2021/08/26 06:51:40;;;;;;;7.72;6.35;;;;;;;30.88;39.21;96125.41;5115089;28;20022;-60
2021/08/26 06:54:06;;;;;;;10.35;6.72;;;;;;;30.96;40.42;96114.44;5115065;28;20470;-61
2021/08/26 06:56:31;;;;;;;7.82;6.60;;;;;;;30.89;39.53;96122.50;5114948;28;20107;-60
2021/08/26 06:58:57;;;;;;;10.05;6.93;;;;;;;31.11;39.44;96126.97;5115006;28;20016;-61
2021/08/26 07:01:22;;;;;;;8.40;6.65;;;;;;;31.36;40.05;96124.63;5114925;28;20035;-61
2021/08/26 07:03:50;;;;;;;9.98;6.85;;;;;;;31.52;39.08;96125.34;5114906;28;20030;-61
2021/08/26 07:06:16;;;;;;;7.65;6.75;;;;;;;31.74;39.22;96117.09;5114877;28;20382;-61
2021/08/26 07:08:42;;;;;;;9.98;7.07;;;;;;;31.55;38.90;96130.34;5114710;28;20023;-60
2021/08/26 07:11:07;;;;;;;10.13;7.70;;;;;;;31.47;39.02;96128.63;5113549;28;20051;-60
2021/08/26 07:13:33;;;;;;;12.32;7.10;;;;;;;31.75;38.81;96130.41;5114695;28;20049;-61
2021/08/26 07:15:59;;;;;;;10.77;7.75;;;;;;;31.82;38.52;96127.72;5114682;28;20031;-60
2021/08/26 07:18:25;;;;;;;9.02;7.38;;;;;;;31.97;38.41;96130.28;5114721;28;20381;-61
2021/08/26 07:20:51;;;;;;;11.75;7.28;;;;;;;32.10;36.90;96125.94;5114438;28;20102;-61
2021/08/26 07:23:18;;;;;;;9.80;7.55;;;;;;;32.15;37.36;96132.38;5114386;28;20119;-61
2021/08/26 07:25:43;;;;;;;9.45;7.22;;;;;;;32.32;37.12;96131.97;5114130;28;20043;-61
2021/08/26 07:28:09;;;;;;;8.50;7.55;;;;;;;32.14;36.83;96138.84;5113827;28;20480;-60
2021/08/26 07:30:35;;;;;;;12.63;7.55;;;;;;;32.02;37.59;96149.41;5114279;28;20020;-60
2021/08/26 07:33:02;;;;;;;8.27;7.13;;;;;;;31.99;37.98;96146.31;5114361;28;20134;-61
2021/08/26 07:35:28;;;;;;;13.80;8.20;;;;;;;31.76;37.91;96147.44;5114376;28;20051;-60
2021/08/26 07:37:54;;;;;;;9.25;7.35;;;;;;;31.83;38.38;96145.59;5114308;28;20023;-60
2021/08/26 07:40:20;;;;;;;9.07;7.55;;;;;;;31.87;37.48;96132.50;5114047;28;20031;-61
2021/08/26 07:42:45;;;;;;;15.65;8.48;;;;;;;31.91;36.17;96128.38;5114128;28;20466;-60
2021/08/26 07:45:11;;;;;;;10.18;8.13;;;;;;;32.10;38.13;96137.59;5114140;28;20132;-60
2021/08/26 07:47:37;;;;;;;9.48;7.18;;;;;;;31.93;37.12;96118.19;5114075;28;20034;-61
2021/08/26 07:50:05;;;;;;;9.27;6.90;;;;;;;32.07;36.30;96119.06;5113965;28;20024;-60
2021/08/26 07:52:32;;;;;;;9.10;6.80;;;;;;;32.36;36.00;96118.88;5113865;28;20030;-61
2021/08/26 07:54:58;;;;;;;10.63;7.20;;;;;;;32.39;34.36;96121.19;5113951;28;20035;-60
2021/08/26 07:57:23;;;;;;;9.02;6.65;;;;;;;32.73;33.90;96116.63;5113912;28;20373;-61
2021/08/26 07:59:49;;;;;;;10.20;6.72;;;;;;;32.94;32.84;96120.13;5113764;28;20488;-61
2021/08/26 08:02:14;;;;;;;7.85;6.82;;;;;;;32.74;33.47;96126.38;5113802;28;20055;-61
2021/08/26 08:04:40;;;;;;;15.38;6.63;;;;;;;32.50;34.12;96142.22;5113791;28;20019;-59
2021/08/26 08:07:06;;;;;;;11.18;7.32;;;;;;;32.55;35.32;96140.75;5113709;28;20534;-60
2021/08/26 08:09:33;;;;;;;8.30;6.80;;;;;;;32.68;34.53;96138.03;5113738;28;20161;-60
2021/08/26 08:12:00;;;;;;;10.68;7.70;;;;;;;32.75;34.01;96136.16;5113829;28;20430;-61
2021/08/26 08:14:28;;;;;;;9.27;7.60;;;;;;;32.95;33.78;96143.44;5113608;28;20024;-60
2021/08/26 08:16:55;;;;;;;10.15;7.07;;;;;;;32.69;33.96;96139.72;5113543;28;20107;-60
2021/08/26 08:19:21;;;;;;;12.82;7.72;;;;;;;32.60;34.31;96132.84;5113417;28;20023;-60
2021/08/26 08:21:47;;;;;;;15.55;7.75;;;;;;;32.02;35.41;96124.25;5113664;28;20059;-60
2021/08/26 08:24:12;;;;;;;7.43;6.70;;;;;;;31.76;35.17;96115.84;5113298;28;20438;-60
2021/08/26 08:26:38;;;;;;;8.38;7.47;;;;;;;31.83;35.50;96115.03;5112201;28;20036;-61
2021/08/26 08:29:04;;;;;;;8.27;7.03;;;;;;;32.06;35.33;96103.03;5113395;28;20119;-61
2021/08/26 08:31:30;;;;;;;8.48;7.15;;;;;;;32.27;35.33;96102.03;5113492;28;20546;-60
2021/08/26 08:33:56;;;;;;;9.45;7.50;;;;;;;31.99;35.50;96108.47;5113429;28;20028;-60
2021/08/26 08:36:21;;;;;;;9.40;8.30;;;;;;;31.63;36.32;96100.44;5113542;28;20069;-60
2021/08/26 08:38:47;;;;;;;9.85;7.78;;;;;;;31.45;37.46;96102.88;5115973;28;20023;-61
2021/08/26 08:41:17;;;;;;;10.88;8.38;;;;;;;31.54;36.23;96092.72;5117518;28;20077;-61
2021/08/26 08:43:43;;;;;;;8.23;7.35;;;;;;;31.52;34.92;96079.41;5117572;28;20019;-61
2021/08/26 08:46:09;;;;;;;8.02;7.22;;;;;;;31.54;35.13;96068.41;5117543;28;20026;-60
2021/08/26 08:48:38;;;;;;;12.38;7.95;;;;;;;30.76;37.11;96074.66;5117580;28;20048;-60
2021/08/26 08:51:04;;;;;;;11.35;8.23;;;;;;;30.59;37.56;96057.94;5117617;27;20098;-59
2021/08/26 08:53:30;;;;;;;11.32;8.35;;;;;;;30.85;37.75;96058.31;5117467;27;20444;-60
2021/08/26 08:55:57;;;;;;;11.00;7.80;;;;;;;31.11;37.87;96072.97;5117359;28;20024;-60
2021/08/26 08:58:22;;;;;;;9.77;7.95;;;;;;;31.28;37.16;96076.19;5117310;28;20027;-59
2021/08/26 09:00:48;;;;;;;10.77;9.27;;;;;;;31.18;36.67;96075.72;5117321;28;20050;-60
2021/08/26 09:03:13;;;;;;;11.20;8.05;;;;;;;30.96;36.90;96083.91;5117191;28;20437;-60
2021/08/26 09:05:57;;;;;;;10.27;8.27;;;;;;;30.95;37.28;96096.59;5117057;28;20035;-59
2021/08/26 09:08:24;;;;;;;12.65;9.15;;;;;;;30.96;37.54;96103.63;5117155;28;20504;-60
2021/08/26 09:10:54;;;;;;;9.65;8.60;;;;;;;30.95;37.64;96120.03;5117158;28;20465;-60
2021/08/26 09:13:33;;;;;;;10.40;7.85;;;;;;;30.67;38.06;96118.16;5117217;28;20023;-59
2021/08/26 09:15:59;;;;;;;10.57;8.85;;;;;;;30.80;38.00;96109.34;5116917;28;20035;-59
2021/08/26 09:18:25;;;;;;;13.77;8.80;;;;;;;30.63;36.59;96094.28;5116890;28;20034;-60
2021/08/26 09:20:55;;;;;;;11.60;8.60;;;;;;;30.44;39.07;96084.16;5115580;28;20039;-60
2021/08/26 09:23:24;;;;;;;8.57;7.68;;;;;;;30.49;37.50;96076.34;5115699;28;20038;-59
2021/08/26 09:25:51;;;;;;;12.30;8.40;;;;;;;30.63;37.46;96063.75;5116776;28;20466;-60
2021/08/26 09:28:31;;;;;;;12.63;7.88;;;;;;;30.67;38.26;96067.72;5116697;28;20461;-60
2021/08/26 09:31:09;;;;;;;;;;;;;;;30.82;37.28;96066.81;5117083;28;20027;-60
2021/08/26 09:34:00;;;;;;;9.18;8.27;;;;;;;30.38;36.56;96075.84;5116662;28;19912;-60
2021/08/26 09:36:31;;;;;;;10.38;8.30;;;;;;;30.38;38.81;96086.63;5116728;28;20053;-60
2021/08/26 09:39:12;;;;;;;9.65;8.52;;;;;;;30.59;38.27;96084.06;5116717;28;20035;-60
2021/08/26 09:41:43;;;;;;;9.45;7.97;;;;;;;30.45;38.31;96081.28;5116733;28;20031;-60
2021/08/26 09:44:17;;;;;;;8.63;7.72;;;;;;;30.46;38.24;96069.44;5116639;28;20031;-59
2021/08/26 09:46:51;;;;;;;11.77;8.57;;;;;;;30.71;38.70;96058.22;5116424;28;20465;-60
2021/08/26 09:49:20;;;;;;;11.98;8.30;;;;;;;30.77;38.22;96067.41;5115577;28;20457;-61
2021/08/26 09:52:01;;;;;;;10.45;8.55;;;;;;;30.78;38.37;96074.47;5116412;28;20094;-60
2021/08/26 09:54:38;;;;;;;10.25;8.13;;;;;;;30.94;37.29;96072.50;5116199;28;20102;-59
2021/08/26 09:57:05;;;;;;;10.93;8.45;;;;;;;30.91;38.58;96068.31;5116257;28;20089;-60
2021/08/26 10:00:01;;;;;;;13.93;8.48;;;;;;;30.91;38.06;96062.09;5116204;28;20106;-60
2021/08/26 10:02:28;;;;;;;11.65;8.73;;;;;;;30.83;36.28;96054.97;5116117;27;20085;-60
2021/08/26 10:04:55;;;;;;;14.88;8.45;;;;;;;31.04;37.15;96045.97;5116016;28;20055;-61
2021/08/26 10:07:22;;;;;;;11.70;8.68;;;;;;;31.43;37.13;96037.41;5115985;28;20151;-61
2021/08/26 10:09:48;;;;;;;10.30;8.45;;;;;;;31.37;36.46;96034.50;5115981;28;20066;-60
2021/08/26 10:12:15;;;;;;;11.65;9.32;;;;;;;31.07;36.65;96031.22;5116003;27;20048;-60
2021/08/26 10:14:52;;;;;;;11.80;9.13;;;;;;;30.74;37.40;96041.63;5114720;28;20462;-60
2021/08/26 10:17:18;;;;;;;8.68;7.78;;;;;;;30.83;36.74;96036.09;5115768;28;20044;-60
2021/08/26 10:19:44;;;;;;;13.95;9.30;;;;;;;30.76;37.82;96036.88;5115761;28;20034;-60
2021/08/26 10:22:13;;;;;;;11.38;9.35;;;;;;;30.50;37.39;96037.53;5115765;28;20102;-60
2021/08/26 10:24:39;;;;;;;10.07;8.65;;;;;;;30.32;37.74;96036.16;5115446;28;20039;-60
2021/08/26 10:27:09;;;;;;;19.65;9.05;;;;;;;30.02;38.96;96036.31;5115648;27;20031;-60
2021/08/26 10:29:38;;;;;;;10.70;9.30;;;;;;;29.81;39.16;96026.38;5115654;28;20173;-60
2021/08/26 10:32:05;;;;;;;11.68;9.93;;;;;;;29.64;39.12;96027.47;5115567;28;20414;-60
2021/08/26 10:34:32;;;;;;;15.98;9.45;;;;;;;29.62;39.98;96026.81;5115447;28;20384;-61
2021/08/26 10:36:57;;;;;;;20.13;9.80;;;;;;;29.71;39.66;96029.41;5115480;28;20034;-61
2021/08/26 10:39:41;;;;;;;12.88;10.18;;;;;;;29.52;40.49;96037.88;5115355;28;20369;-60
2021/08/26 10:42:32;;;;;;;14.63;10.30;;;;;;;29.28;41.41;96039.06;5114900;28;20043;-60
2021/08/26 10:45:08;;;;;;;14.52;10.38;;;;;;;29.04;41.62;96042.94;5115349;28;20032;-60
2021/08/26 10:47:49;;;;;;;16.35;10.23;;;;;;;28.90;41.85;96034.66;5115152;28;20036;-61
2021/08/26 10:50:26;;;;;;;13.00;10.80;;;;;;;28.91;42.12;96038.16;5115194;28;20509;-60
2021/08/26 10:53:04;;;;;;;15.18;12.05;;;;;;;28.95;41.91;96031.44;5115220;28;20085;-61
2021/08/26 10:55:42;;;;;;;13.93;11.55;;;;;;;28.58;42.09;96026.78;5115047;28;20047;-60
2021/08/26 11:01:00;;;;;;;14.95;10.93;;;;;;;28.16;43.67;96030.84;5114808;28;20044;-60
2021/08/26 11:03:35;;;;;;;13.73;10.57;;;;;;;28.11;43.44;96034.91;5114960;28;20024;-60
2021/08/26 11:06:16;;;;;;;12.27;10.93;;;;;;;28.04;44.09;96049.25;5114913;28;20039;-60
2021/08/26 11:08:44;;;;;;;14.55;11.00;;;;;;;27.87;44.08;96046.69;5114797;28;20024;-60
2021/08/26 11:11:26;;;;;;;15.02;11.77;;;;;;;27.88;44.45;96045.72;5114719;28;20020;-59
2021/08/26 11:14:01;;;;;;;17.48;11.30;;;;;;;27.84;45.01;96050.59;5114663;28;20508;-60
2021/08/26 11:16:27;;;;;;;13.63;10.85;;;;;;;27.83;44.73;96059.69;5114771;28;20050;-61
2021/08/26 11:18:57;;;;;;;19.33;12.13;;;;;;;27.74;44.75;96058.91;5114536;28;20059;-60
2021/08/26 11:21:47;;;;;;;16.63;12.23;;;;;;;27.62;45.59;96057.59;5114570;28;20066;-61
2021/08/26 11:24:16;;;;;;;15.35;12.57;;;;;;;27.54;46.23;96055.81;5114214;28;20062;-60
2021/08/26 11:26:47;;;;;;;16.10;13.15;;;;;;;27.47;49.14;96053.00;5114420;28;20423;-60
2021/08/26 11:29:24;;;;;;;15.48;11.88;;;;;;;27.29;49.16;96055.94;5114364;28;20465;-60
2021/08/26 11:32:00;;;;;;;16.85;12.95;;;;;;;27.08;49.47;96046.66;5114403;28;20019;-60
2021/08/26 11:34:49;;;;;;;16.80;13.07;;;;;;;27.12;49.97;96033.75;5114229;28;20031;-61